Time;durP1;ratioP1;P1;durP2;ratioP2;P2;SDS_P1;SDS_P2;PMS_P1;PMS_P2;Temp;Humidity;BMP_temperature;BMP_pressure;BME280_temperature;BME280_humidity;BME280_pressure;Samples;Min_cycle;Max_cycle;Signal;HPM_P1;HPM_P2
2023/10/15 00:00:35;;;;;;;10.95;1.05;;;;;;;;;;4963319;28;20280;-66
2023/10/15 00:03:02;;;;;;;10.38;1.50;;;;;;;;;;4962472;28;20113;-69
2023/10/15 00:05:28;;;;;;;3.75;1.30;;;;;;;;;;4964975;28;20026;-65
2023/10/15 00:07:54;;;;;;;4.30;1.55;;;;;;;;;;4961876;28;20496;-66
2023/10/15 00:10:27;;;;;;;3.63;1.10;;;;;;;;;;4963729;28;20023;-66
2023/10/15 00:12:54;;;;;;;6.75;2.38;;;;;;;;;;4964655;28;20031;-63
2023/10/15 00:15:20;;;;;;;8.57;2.15;;;;;;;;;;4963888;28;20440;-65
2023/10/15 00:17:47;;;;;;;6.80;1.85;;;;;;;;;;4966893;28;20030;-65
2023/10/15 00:20:17;;;;;;;9.57;2.47;;;;;;;;;;4966914;28;20027;-63
2023/10/15 00:22:48;;;;;;;4.30;1.38;;;;;;;;;;4967398;28;20026;-66
2023/10/15 00:25:14;;;;;;;7.30;1.50;;;;;;;;;;4966965;28;20034;-69
2023/10/15 00:27:52;;;;;;;7.10;1.65;;;;;;;;;;4967442;28;20023;-67
2023/10/15 00:30:19;;;;;;;5.28;1.15;;;;;;;;;;4967311;28;20023;-65
2023/10/15 00:32:46;;;;;;;8.25;1.40;;;;;;;;;;4966927;28;20043;-64
2023/10/15 00:35:21;;;;;;;5.28;1.20;;;;;;;;;;4968482;28;20478;-66
2023/10/15 00:37:56;;;;;;;7.15;1.42;;;;;;;;;;4968367;28;20089;-66
2023/10/15 00:40:24;;;;;;;7.75;1.25;;;;;;;;;;4967749;28;20027;-66
2023/10/15 00:42:50;;;;;;;6.40;1.10;;;;;;;;;;4966235;28;20027;-64
2023/10/15 00:45:18;;;;;;;8.93;1.38;;;;;;;;;;4967898;28;20026;-68
2023/10/15 00:48:07;;;;;;;2.63;0.80;;;;;;;;;;4967887;28;20031;-64
2023/10/15 00:50:44;;;;;;;2.58;0.80;;;;;;;;;;4966386;28;20062;-65
2023/10/15 00:53:23;;;;;;;5.88;1.27;;;;;;;;;;4966233;28;20114;-68
2023/10/15 00:56:04;;;;;;;6.22;1.20;;;;;;;;;;4958167;28;20031;-67
2023/10/15 01:01:20;;;;;;;6.88;1.20;;;;;;;;;;4958063;28;20386;-70
2023/10/15 01:03:54;;;;;;;7.40;1.15;;;;;;;;;;4957895;28;20035;-67
2023/10/15 01:06:37;;;;;;;6.20;1.00;;;;;;;;;;4957936;28;20384;-68
2023/10/15 01:09:10;;;;;;;6.15;1.50;;;;;;;;;;4957740;28;20035;-68
2023/10/15 01:12:40;;;;;;;8.57;1.40;;;;;;;;;;4957430;28;20178;-66
2023/10/15 01:14:38;;;;;;;6.07;1.13;;;;;;;;;;4957035;28;20038;-64
2023/10/15 01:17:04;;;;;;;7.82;1.15;;;;;;;;;;4957470;28;20035;-63
2023/10/15 01:19:34;;;;;;;8.75;1.10;;;;;;;;;;4957559;28;20042;-68
2023/10/15 01:22:10;;;;;;;8.23;1.80;;;;;;;;;;4957517;28;20034;-67
2023/10/15 01:24:37;;;;;;;6.18;1.10;;;;;;;;;;4957280;28;20397;-69
2023/10/15 01:29:34;;;;;;;5.13;1.58;;;;;;;;;;4957151;28;20496;-69
2023/10/15 01:32:06;;;;;;;7.40;1.15;;;;;;;;;;4957149;28;20083;-65
2023/10/15 01:34:37;;;;;;;3.70;1.15;;;;;;;;;;4972096;28;20383;-67
2023/10/15 01:37:15;;;;;;;;;;;;;;;;;;4976989;28;20023;-66
2023/10/15 01:39:45;;;;;;;6.22;1.23;;;;;;;;;;4976218;28;19961;-68
2023/10/15 01:42:32;;;;;;;5.95;1.65;;;;;;;;;;4976501;28;20086;-68
2023/10/15 01:45:14;;;;;;;10.70;1.83;;;;;;;;;;4976304;28;20046;-67
2023/10/15 01:53:04;;;;;;;5.60;1.38;;;;;;;;;;4976382;28;20042;-66
2023/10/15 01:55:30;;;;;;;3.03;0.90;;;;;;;;;;4976088;28;20030;-66
2023/10/15 01:58:00;;;;;;;4.55;1.17;;;;;;;;;;4976123;28;20042;-62
2023/10/15 02:03:07;;;;;;;8.05;1.50;;;;;;;;;;4976151;28;20468;-62
2023/10/15 02:05:43;;;;;;;4.93;1.00;;;;;;;;;;4976056;28;20029;-65
2023/10/15 02:08:13;;;;;;;4.55;1.00;;;;;;;;;;4975745;28;20110;-63
2023/10/15 02:10:46;;;;;;;7.53;1.75;;;;;;;;;;4976019;28;20101;-63
2023/10/15 02:13:12;;;;;;;4.82;1.23;;;;;;;;;;4975902;28;20053;-63
2023/10/15 02:15:39;;;;;;;5.20;1.40;;;;;;;;;;4975966;28;20031;-63
2023/10/15 02:18:13;;;;;;;4.88;1.15;;;;;;;;;;4974459;28;20038;-63
2023/10/15 02:20:44;;;;;;;5.68;1.10;;;;;;;;;;4975868;28;20030;-63
2023/10/15 02:23:18;;;;;;;6.50;1.10;;;;;;;;;;4975575;28;20031;-63
2023/10/15 02:25:47;;;;;;;7.65;1.10;;;;;;;;;;4975801;28;20031;-63
2023/10/15 02:28:16;;;;;;;8.82;1.60;;;;;;;;;;4975638;28;20039;-64
2023/10/15 02:30:46;;;;;;;9.32;1.10;;;;;;;;;;4975719;28;20495;-62
2023/10/15 02:33:16;;;;;;;4.82;0.98;;;;;;;;;;4979403;28;20508;-64
2023/10/15 02:35:45;;;;;;;5.40;1.45;;;;;;;;;;4994838;28;20058;-64
2023/10/15 02:38:12;;;;;;;4.18;1.25;;;;;;;;;;4994704;28;20109;-64
2023/10/15 02:41:03;;;;;;;3.95;0.93;;;;;;;;;;4994861;28;20080;-64
2023/10/15 02:43:26;;;;;;;7.05;1.50;;;;;;;;;;4994731;28;20034;-66
2023/10/15 02:45:52;;;;;;;8.15;1.27;;;;;;;;;;4994717;28;20499;-66
2023/10/15 02:48:22;;;;;;;5.60;1.20;;;;;;;;;;4994624;28;20030;-63
2023/10/15 02:53:52;;;;;;;;;;;;;;;;;;4953902;28;20309;-64
2023/10/15 02:56:19;;;;;;;4.20;1.00;;;;;;;;;;4953668;28;19920;-65
2023/10/15 02:58:47;;;;;;;4.65;1.25;;;;;;;;;;4953642;28;20488;-64
2023/10/15 03:01:17;;;;;;;4.85;1.08;;;;;;;;;;4953685;29;20055;-65
2023/10/15 03:03:48;;;;;;;5.55;1.23;;;;;;;;;;4953665;29;20114;-63
2023/10/15 03:06:18;;;;;;;9.45;1.90;;;;;;;;;;4953565;28;20484;-64
2023/10/15 03:08:45;;;;;;;11.82;2.53;;;;;;;;;;4953235;28;20078;-64
2023/10/15 03:11:14;;;;;;;3.70;1.27;;;;;;;;;;4953413;28;20043;-63
2023/10/15 03:13:55;;;;;;;9.68;1.85;;;;;;;;;;4953398;29;20027;-62
2023/10/15 03:16:26;;;;;;;7.78;1.10;;;;;;;;;;4953495;29;20468;-65
2023/10/15 03:18:52;;;;;;;4.05;1.38;;;;;;;;;;4953236;28;20038;-66
2023/10/15 03:21:30;;;;;;;4.60;1.10;;;;;;;;;;4952780;29;20111;-64
2023/10/15 03:23:57;;;;;;;5.85;1.10;;;;;;;;;;4953283;28;20046;-64
2023/10/15 03:26:31;;;;;;;7.35;0.90;;;;;;;;;;4937123;29;20135;-67
2023/10/15 03:29:00;;;;;;;2.90;0.80;;;;;;;;;;4966472;28;20034;-63
2023/10/15 03:31:31;;;;;;;3.95;0.82;;;;;;;;;;4992482;28;20070;-69
2023/10/15 03:34:47;;;;;;;4.35;1.10;;;;;;;;;;4993612;28;20391;-66
2023/10/15 03:39:56;;;;;;;3.08;0.90;;;;;;;;;;4993634;28;20031;-68
2023/10/15 03:42:09;;;;;;;6.95;1.73;;;;;;;;;;4986088;28;20041;-67
2023/10/15 03:44:47;;;;;;;1.77;0.70;;;;;;;;;;4992231;28;20438;-67
2023/10/15 03:47:13;;;;;;;2.38;0.88;;;;;;;;;;4992911;28;20076;-64
2023/10/15 03:49:39;;;;;;;3.63;0.70;;;;;;;;;;4993130;28;20026;-68
2023/10/15 03:52:09;;;;;;;5.78;1.10;;;;;;;;;;4992804;28;20468;-69
2023/10/15 03:54:37;;;;;;;3.63;0.85;;;;;;;;;;4993240;28;20021;-66
2023/10/15 03:57:06;;;;;;;4.43;0.70;;;;;;;;;;4993183;28;20388;-68
2023/10/15 03:59:41;;;;;;;1.23;0.60;;;;;;;;;;4993050;28;20093;-65
2023/10/15 04:02:11;;;;;;;1.98;0.70;;;;;;;;;;4993077;28;20026;-69
2023/10/15 04:04:37;;;;;;;2.75;1.13;;;;;;;;;;4993063;28;20026;-68
2023/10/15 04:07:19;;;;;;;6.28;0.88;;;;;;;;;;4993688;28;20498;-68
2023/10/15 04:09:44;;;;;;;3.53;0.77;;;;;;;;;;4993390;28;20030;-66
2023/10/15 04:12:09;;;;;;;4.28;0.90;;;;;;;;;;4993468;28;20032;-69
2023/10/15 04:14:35;;;;;;;3.08;0.80;;;;;;;;;;4993414;28;20062;-70
2023/10/15 04:17:01;;;;;;;4.13;0.68;;;;;;;;;;4993477;28;20023;-68
2023/10/15 04:19:29;;;;;;;2.53;0.90;;;;;;;;;;4992732;28;20046;-64
2023/10/15 04:22:13;;;;;;;3.65;1.05;;;;;;;;;;4993255;28;20042;-70
2023/10/15 04:24:39;;;;;;;1.60;0.70;;;;;;;;;;4993453;28;20372;-67
2023/10/15 04:27:15;;;;;;;1.83;0.70;;;;;;;;;;4993364;28;20109;-66
2023/10/15 04:30:00;;;;;;;3.58;1.08;;;;;;;;;;4993432;28;20067;-68
2023/10/15 04:32:46;;;;;;;2.38;0.80;;;;;;;;;;4991901;28;20049;-69
2023/10/15 04:35:25;;;;;;;0.95;0.52;;;;;;;;;;4992781;28;20050;-67
2023/10/15 04:37:57;;;;;;;3.23;0.63;;;;;;;;;;4993042;28;20069;-67
2023/10/15 04:40:23;;;;;;;6.22;1.42;;;;;;;;;;4993183;28;20419;-68
2023/10/15 04:42:49;;;;;;;3.85;0.90;;;;;;;;;;4993258;28;20022;-67
2023/10/15 04:45:35;;;;;;;1.80;0.70;;;;;;;;;;4993169;28;20049;-65
2023/10/15 04:48:01;;;;;;;3.65;0.88;;;;;;;;;;4992788;28;20452;-65
2023/10/15 04:50:35;;;;;;;3.20;0.80;;;;;;;;;;4993157;28;20038;-64
2023/10/15 04:53:13;;;;;;;1.80;0.65;;;;;;;;;;4993053;28;20037;-67
2023/10/15 04:55:42;;;;;;;4.10;1.20;;;;;;;;;;4993239;28;20066;-67
2023/10/15 04:58:09;;;;;;;4.22;0.90;;;;;;;;;;4993012;28;20031;-69
2023/10/15 05:00:35;;;;;;;1.95;0.60;;;;;;;;;;4976221;28;20086;-67
2023/10/15 05:03:01;;;;;;;4.75;0.65;;;;;;;;;;4974478;28;20043;-65
2023/10/15 05:05:26;;;;;;;2.40;0.75;;;;;;;;;;4977255;28;20171;-63
2023/10/15 05:07:57;;;;;;;2.67;0.80;;;;;;;;;;4977200;28;20031;-68
2023/10/15 05:10:23;;;;;;;1.42;0.60;;;;;;;;;;4977002;28;20395;-65
2023/10/15 05:12:51;;;;;;;2.22;0.82;;;;;;;;;;4977150;28;20054;-69
2023/10/15 05:15:18;;;;;;;4.00;0.90;;;;;;;;;;4975721;28;20476;-68
2023/10/15 05:17:46;;;;;;;9.30;1.20;;;;;;;;;;4976392;28;20034;-69
2023/10/15 05:20:13;;;;;;;2.53;0.68;;;;;;;;;;4976777;28;20114;-69
2023/10/15 05:22:39;;;;;;;2.63;0.70;;;;;;;;;;4976898;28;20027;-68
2023/10/15 05:25:05;;;;;;;3.95;0.88;;;;;;;;;;4976925;28;20444;-66
2023/10/15 05:27:32;;;;;;;5.93;0.85;;;;;;;;;;4976787;28;20033;-70
2023/10/15 05:29:58;;;;;;;3.50;1.27;;;;;;;;;;4976745;28;20530;-64
2023/10/15 05:32:24;;;;;;;4.53;1.25;;;;;;;;;;4976218;28;20046;-65
2023/10/15 05:34:49;;;;;;;6.10;0.98;;;;;;;;;;4993932;28;20034;-67
2023/10/15 05:37:16;;;;;;;8.48;1.00;;;;;;;;;;4995949;28;20062;-69
2023/10/15 05:39:41;;;;;;;3.28;0.90;;;;;;;;;;4995957;28;20030;-70
2023/10/15 05:42:07;;;;;;;3.15;0.68;;;;;;;;;;4996026;28;20049;-69
2023/10/15 05:44:34;;;;;;;2.65;0.77;;;;;;;;;;4996035;28;20109;-70
2023/10/15 05:47:00;;;;;;;4.30;0.88;;;;;;;;;;4995586;28;20085;-64
2023/10/15 05:49:26;;;;;;;2.58;0.90;;;;;;;;;;4995592;28;20026;-70
2023/10/15 05:51:51;;;;;;;6.15;1.15;;;;;;;;;;4995827;28;20038;-70
2023/10/15 05:54:17;;;;;;;4.97;1.10;;;;;;;;;;4995800;28;20027;-70
2023/10/15 05:56:42;;;;;;;1.88;0.82;;;;;;;;;;4995735;28;20022;-70
2023/10/15 05:59:08;;;;;;;4.25;0.90;;;;;;;;;;4995550;28;20165;-69
2023/10/15 06:01:33;;;;;;;5.32;1.00;;;;;;;;;;4995357;28;20041;-70
2023/10/15 06:03:59;;;;;;;2.15;0.90;;;;;;;;;;4995594;28;20046;-71
2023/10/15 06:06:25;;;;;;;2.88;0.90;;;;;;;;;;4995505;28;20031;-69
2023/10/15 06:08:52;;;;;;;5.45;0.90;;;;;;;;;;4995428;28;20036;-70
2023/10/15 06:11:17;;;;;;;3.85;1.40;;;;;;;;;;4995420;28;20030;-69
2023/10/15 06:13:43;;;;;;;3.92;1.02;;;;;;;;;;4994887;28;20428;-69
2023/10/15 06:16:08;;;;;;;10.23;1.13;;;;;;;;;;4995253;28;20026;-69
2023/10/15 06:18:34;;;;;;;7.60;1.45;;;;;;;;;;4994901;28;20030;-71
2023/10/15 06:20:59;;;;;;;5.63;1.35;;;;;;;;;;4995336;28;20023;-70
2023/10/15 06:23:25;;;;;;;4.60;1.00;;;;;;;;;;4995180;28;20038;-69
2023/10/15 06:25:50;;;;;;;1.95;0.77;;;;;;;;;;4995327;28;20033;-70
2023/10/15 06:28:16;;;;;;;2.50;1.05;;;;;;;;;;4995065;28;20038;-69
2023/10/15 06:30:43;;;;;;;5.30;1.00;;;;;;;;;;4994851;28;20462;-70
2023/10/15 06:33:09;;;;;;;3.10;1.13;;;;;;;;;;4994727;28;20081;-66
2023/10/15 06:35:34;;;;;;;6.57;0.93;;;;;;;;;;4994865;28;20464;-70
2023/10/15 06:37:59;;;;;;;5.57;1.27;;;;;;;;;;4994526;28;20041;-69
2023/10/15 06:40:26;;;;;;;3.00;0.90;;;;;;;;;;4994852;28;20069;-70
2023/10/15 06:42:52;;;;;;;5.03;1.15;;;;;;;;;;4994894;28;20026;-70
2023/10/15 06:45:20;;;;;;;2.40;0.77;;;;;;;;;;4993347;28;20030;-69
2023/10/15 06:47:51;;;;;;;5.97;1.00;;;;;;;;;;4994596;28;20116;-70
2023/10/15 06:50:19;;;;;;;4.13;1.10;;;;;;;;;;4994554;28;20033;-64
2023/10/15 06:52:45;;;;;;;4.00;0.88;;;;;;;;;;4994836;28;20034;-70
2023/10/15 06:55:14;;;;;;;6.22;1.20;;;;;;;;;;4994564;28;20046;-70
2023/10/15 06:57:40;;;;;;;2.28;0.90;;;;;;;;;;4994135;28;20030;-71
2023/10/15 07:00:08;;;;;;;3.42;0.90;;;;;;;;;;4994506;28;20468;-71
2023/10/15 07:02:33;;;;;;;7.03;1.10;;;;;;;;;;4994556;28;20037;-70
2023/10/15 07:05:00;;;;;;;2.80;0.80;;;;;;;;;;4994431;28;20026;-70
2023/10/15 07:07:27;;;;;;;2.88;0.95;;;;;;;;;;4994429;28;20066;-69
2023/10/15 07:09:53;;;;;;;3.35;0.90;;;;;;;;;;4994081;28;20031;-70
2023/10/15 07:12:20;;;;;;;5.82;1.20;;;;;;;;;;4994085;28;20053;-70
2023/10/15 07:14:48;;;;;;;4.13;1.10;;;;;;;;;;4994144;28;20037;-69
2023/10/15 07:17:16;;;;;;;6.00;1.00;;;;;;;;;;4994175;28;20023;-69
2023/10/15 07:19:42;;;;;;;5.72;1.25;;;;;;;;;;4994063;28;20146;-70
2023/10/15 07:22:07;;;;;;;2.92;1.00;;;;;;;;;;4994085;28;20460;-66
2023/10/15 07:24:33;;;;;;;2.20;0.93;;;;;;;;;;4994198;28;20415;-70
2023/10/15 07:26:58;;;;;;;3.33;1.00;;;;;;;;;;4993020;28;20482;-69
2023/10/15 07:29:27;;;;;;;4.38;1.00;;;;;;;;;;4993994;28;20030;-68
2023/10/15 07:31:53;;;;;;;3.50;0.90;;;;;;;;;;4990064;28;20097;-70
2023/10/15 07:34:19;;;;;;;4.68;1.10;;;;;;;;;;4974298;28;20030;-70
2023/10/15 07:36:45;;;;;;;4.40;1.10;;;;;;;;;;4974471;28;20504;-70
2023/10/15 07:39:10;;;;;;;3.05;1.00;;;;;;;;;;4973996;28;20035;-68
2023/10/15 07:41:37;;;;;;;4.93;1.27;;;;;;;;;;4974026;28;20034;-70
2023/10/15 07:44:03;;;;;;;2.65;0.90;;;;;;;;;;4974218;28;20019;-70
2023/10/15 07:46:29;;;;;;;2.30;0.80;;;;;;;;;;4974060;28;20376;-67
2023/10/15 07:48:57;;;;;;;3.50;1.10;;;;;;;;;;4973908;28;20472;-64
2023/10/15 07:51:23;;;;;;;3.83;1.23;;;;;;;;;;4973627;28;20081;-69
2023/10/15 07:53:48;;;;;;;3.97;1.10;;;;;;;;;;4975138;28;20030;-62
2023/10/15 07:56:14;;;;;;;3.13;0.90;;;;;;;;;;4989638;28;20357;-69
2023/10/15 07:58:40;;;;;;;4.30;1.23;;;;;;;;;;4980193;28;20125;-71
2023/10/15 08:01:06;;;;;;;3.45;1.05;;;;;;;;;;4982041;28;20361;-71
2023/10/15 08:03:32;;;;;;;3.08;0.90;;;;;;;;;;4986985;28;20045;-66
2023/10/15 08:06:01;;;;;;;5.30;1.10;;;;;;;;;;4976518;28;20026;-69
2023/10/15 08:08:27;;;;;;;4.22;1.10;;;;;;;;;;4973809;28;20367;-68
2023/10/15 08:10:52;;;;;;;3.38;1.00;;;;;;;;;;4973741;28;20027;-68
2023/10/15 08:13:18;;;;;;;3.28;1.00;;;;;;;;;;4973674;28;20370;-69
2023/10/15 08:15:44;;;;;;;5.60;1.23;;;;;;;;;;4973374;28;20113;-69
2023/10/15 08:18:10;;;;;;;4.90;1.40;;;;;;;;;;4973868;28;20035;-66
2023/10/15 08:20:35;;;;;;;6.13;1.20;;;;;;;;;;4974044;28;20100;-68
2023/10/15 08:23:01;;;;;;;5.60;1.00;;;;;;;;;;4973592;28;20424;-68
2023/10/15 08:25:26;;;;;;;3.10;1.00;;;;;;;;;;4973551;28;20157;-68
2023/10/15 08:27:52;;;;;;;12.02;2.53;;;;;;;;;;4973584;28;20486;-69
2023/10/15 08:30:18;;;;;;;5.22;2.38;;;;;;;;;;4973857;28;20550;-68
2023/10/15 08:32:45;;;;;;;11.95;3.20;;;;;;;;;;4973854;28;20523;-69
2023/10/15 08:35:13;;;;;;;4.35;1.38;;;;;;;;;;4992757;28;20034;-69
2023/10/15 08:37:39;;;;;;;3.42;1.17;;;;;;;;;;4993111;28;20030;-70
2023/10/15 08:40:05;;;;;;;2.38;0.85;;;;;;;;;;4994854;28;20084;-69
2023/10/15 08:42:42;;;;;;;3.13;1.25;;;;;;;;;;4995355;28;20027;-70
2023/10/15 08:45:08;;;;;;;2.55;1.00;;;;;;;;;;4995591;28;20027;-68
2023/10/15 08:47:35;;;;;;;7.90;1.77;;;;;;;;;;4995484;28;20030;-68
2023/10/15 08:50:02;;;;;;;4.38;1.33;;;;;;;;;;4995589;28;20107;-70
2023/10/15 08:52:30;;;;;;;5.03;2.00;;;;;;;;;;4996816;28;20403;-69
2023/10/15 08:54:55;;;;;;;6.85;3.08;;;;;;;;;;4996641;28;20127;-70
2023/10/15 08:57:21;;;;;;;6.40;3.05;;;;;;;;;;4996806;28;20513;-69
2023/10/15 08:59:48;;;;;;;7.45;3.05;;;;;;;;;;4996563;28;20044;-70
2023/10/15 09:02:15;;;;;;;6.80;2.05;;;;;;;;;;4996826;28;20116;-69
2023/10/15 09:04:44;;;;;;;2.50;1.15;;;;;;;;;;4996451;28;20034;-70
2023/10/15 09:07:11;;;;;;;3.47;1.20;;;;;;;;;;4996573;28;20054;-71
2023/10/15 09:09:37;;;;;;;3.63;1.23;;;;;;;;;;4996476;28;20056;-68
2023/10/15 09:12:06;;;;;;;9.43;4.25;;;;;;;;;;4996647;28;20531;-68
2023/10/15 09:14:45;;;;;;;6.05;2.47;;;;;;;;;;4996436;28;20027;-69
2023/10/15 09:17:14;;;;;;;5.93;1.67;;;;;;;;;;4996159;28;20026;-69
2023/10/15 09:19:41;;;;;;;5.93;1.42;;;;;;;;;;4996139;28;20487;-70
2023/10/15 09:22:07;;;;;;;5.38;1.23;;;;;;;;;;4995069;28;20054;-68
2023/10/15 09:24:33;;;;;;;2.55;0.80;;;;;;;;;;4995921;28;20061;-69
2023/10/15 09:26:59;;;;;;;3.42;1.00;;;;;;;;;;4995018;28;20053;-69
2023/10/15 09:29:24;;;;;;;5.13;1.50;;;;;;;;;;4995597;28;20038;-67
2023/10/15 09:31:56;;;;;;;4.97;1.08;;;;;;;;;;4995606;28;20472;-70
2023/10/15 09:34:25;;;;;;;2.28;1.23;;;;;;;;;;4995959;28;20038;-70
2023/10/15 09:36:51;;;;;;;3.08;1.20;;;;;;;;;;4996086;28;20089;-70
2023/10/15 09:39:17;;;;;;;4.18;1.05;;;;;;;;;;4995955;28;20045;-70
2023/10/15 09:41:42;;;;;;;5.47;1.23;;;;;;;;;;4996021;28;20029;-70
2023/10/15 09:44:14;;;;;;;7.82;1.48;;;;;;;;;;4996093;28;20025;-67
2023/10/15 09:46:43;;;;;;;7.15;1.35;;;;;;;;;;4995787;28;20109;-69
2023/10/15 09:49:13;;;;;;;6.85;1.13;;;;;;;;;;4994954;28;20030;-67
2023/10/15 09:51:41;;;;;;;2.58;1.00;;;;;;;;;;4995485;28;20134;-67
2023/10/15 09:54:11;;;;;;;4.10;1.10;;;;;;;;;;4995509;28;20105;-75
2023/10/15 09:56:40;;;;;;;2.97;1.10;;;;;;;;;;4994414;28;20038;-67
2023/10/15 09:59:06;;;;;;;3.83;1.10;;;;;;;;;;4966366;28;20027;-69
2023/10/15 10:01:33;;;;;;;6.82;1.95;;;;;;;;;;4961318;28;20035;-69
2023/10/15 10:04:40;;;;;;;5.45;1.48;;;;;;;;;;4991310;28;20088;-68
2023/10/15 10:07:28;;;;;;;4.72;1.02;;;;;;;;;;4975832;28;20031;-69
2023/10/15 10:10:09;;;;;;;7.63;1.63;;;;;;;;;;4975816;28;20031;-67
2023/10/15 10:13:03;;;;;;;;;;;;;;;;;;4976178;28;20101;-70
2023/10/15 10:15:39;;;;;;;3.50;0.95;;;;;;;;;;4954400;29;20350;-69
2023/10/15 10:18:05;;;;;;;4.95;1.20;;;;;;;;;;4953931;29;20500;-69
2023/10/15 10:20:37;;;;;;;5.38;1.70;;;;;;;;;;4954117;29;20039;-69
2023/10/15 10:23:07;;;;;;;6.13;1.27;;;;;;;;;;4954063;29;20067;-69
2023/10/15 10:25:48;;;;;;;3.38;1.27;;;;;;;;;;4954125;29;20122;-67
2023/10/15 10:28:19;;;;;;;8.60;1.48;;;;;;;;;;4938121;29;20098;-69
2023/10/15 10:30:58;;;;;;;9.70;2.10;;;;;;;;;;4954299;29;20158;-67
2023/10/15 10:33:46;;;;;;;3.97;1.42;;;;;;;;;;4959710;28;20041;-67
2023/10/15 10:36:15;;;;;;;8.00;2.20;;;;;;;;;;4934517;29;20132;-66
2023/10/15 10:38:42;;;;;;;4.10;1.98;;;;;;;;;;4934586;29;20035;-69
2023/10/15 10:41:16;;;;;;;6.32;2.08;;;;;;;;;;4934573;29;20055;-68
2023/10/15 10:43:42;;;;;;;7.32;1.90;;;;;;;;;;4934949;29;20412;-68
2023/10/15 10:46:20;;;;;;;7.30;2.05;;;;;;;;;;4934682;29;20086;-65
2023/10/15 10:49:03;;;;;;;5.93;1.70;;;;;;;;;;4934580;29;20034;-69
2023/10/15 10:51:30;;;;;;;6.18;1.30;;;;;;;;;;4941079;29;20042;-69
2023/10/15 10:53:56;;;;;;;7.95;2.78;;;;;;;;;;4955529;28;20046;-67
2023/10/15 10:56:44;;;;;;;8.32;3.53;;;;;;;;;;4970838;28;20030;-69
2023/10/15 10:59:12;;;;;;;8.85;3.45;;;;;;;;;;4974399;28;20038;-68
2023/10/15 11:01:42;;;;;;;8.18;3.55;;;;;;;;;;4973859;28;20074;-69
2023/10/15 11:04:09;;;;;;;9.95;4.80;;;;;;;;;;4974517;28;20041;-70
2023/10/15 11:06:36;;;;;;;6.38;2.35;;;;;;;;;;4974555;28;20026;-69
2023/10/15 11:09:15;;;;;;;3.83;1.85;;;;;;;;;;4974770;28;20448;-69
2023/10/15 11:11:50;;;;;;;7.45;2.25;;;;;;;;;;4974398;28;20466;-69
2023/10/15 11:14:17;;;;;;;6.20;1.90;;;;;;;;;;4974633;28;20131;-66
2023/10/15 11:16:43;;;;;;;4.88;1.40;;;;;;;;;;4974616;28;20031;-69
2023/10/15 11:19:21;;;;;;;6.70;1.90;;;;;;;;;;4974287;28;20522;-70
2023/10/15 11:21:47;;;;;;;4.20;1.23;;;;;;;;;;4974430;28;20027;-67
2023/10/15 11:24:13;;;;;;;6.72;1.75;;;;;;;;;;4974515;28;20026;-66
2023/10/15 11:26:43;;;;;;;8.07;1.60;;;;;;;;;;4974325;28;20450;-64
2023/10/15 11:29:12;;;;;;;27.20;2.47;;;;;;;;;;4974420;28;20148;-63
2023/10/15 11:31:43;;;;;;;7.65;1.42;;;;;;;;;;4974002;28;20427;-64
2023/10/15 11:34:13;;;;;;;10.32;2.15;;;;;;;;;;4973825;28;20035;-61
2023/10/15 11:36:43;;;;;;;;;;;;;;;;;;4974744;28;20081;-63
2023/10/15 11:39:17;;;;;;;7.68;1.52;;;;;;;;;;4972746;28;19964;-64
2023/10/15 11:41:49;;;;;;;6.80;1.60;;;;;;;;;;4974196;28;20415;-65
2023/10/15 11:44:15;;;;;;;3.63;1.13;;;;;;;;;;4974109;28;20477;-68
2023/10/15 11:46:41;;;;;;;8.20;1.48;;;;;;;;;;4973870;28;20035;-65
2023/10/15 11:49:09;;;;;;;6.22;1.30;;;;;;;;;;4956503;28;20034;-66
2023/10/15 11:51:35;;;;;;;6.55;1.63;;;;;;;;;;4974252;28;20115;-63
2023/10/15 11:54:01;;;;;;;8.25;2.40;;;;;;;;;;4973819;28;20497;-63
2023/10/15 11:56:31;;;;;;;11.38;4.53;;;;;;;;;;4973780;28;20097;-65
2023/10/15 11:59:00;;;;;;;6.13;1.73;;;;;;;;;;4974053;28;20042;-64
2023/10/15 12:01:26;;;;;;;9.70;2.30;;;;;;;;;;4974078;28;20062;-63
2023/10/15 12:03:55;;;;;;;5.38;1.70;;;;;;;;;;4973651;28;20106;-63
2023/10/15 12:06:21;;;;;;;8.70;2.53;;;;;;;;;;4974176;28;20050;-63
2023/10/15 12:08:48;;;;;;;6.90;2.30;;;;;;;;;;4973954;28;20349;-64
2023/10/15 12:11:15;;;;;;;9.32;3.55;;;;;;;;;;4973511;28;20402;-64
2023/10/15 12:13:41;;;;;;;7.93;2.22;;;;;;;;;;4973882;28;20062;-64
2023/10/15 12:16:07;;;;;;;7.75;2.47;;;;;;;;;;4973902;28;20464;-65
2023/10/15 12:18:32;;;;;;;8.10;1.90;;;;;;;;;;4973813;28;20031;-64
2023/10/15 12:20:59;;;;;;;7.65;1.42;;;;;;;;;;4973783;28;20050;-62
2023/10/15 12:23:27;;;;;;;7.43;1.40;;;;;;;;;;4973850;28;20105;-63
2023/10/15 12:25:52;;;;;;;7.60;1.30;;;;;;;;;;4973733;28;20423;-65
2023/10/15 12:28:18;;;;;;;6.45;1.67;;;;;;;;;;4973723;28;20106;-61
2023/10/15 12:30:43;;;;;;;10.65;2.28;;;;;;;;;;4961950;28;20038;-63
2023/10/15 12:33:08;;;;;;;10.95;2.03;;;;;;;;;;4957565;28;20038;-64
2023/10/15 12:35:34;;;;;;;7.25;1.95;;;;;;;;;;4973307;28;20035;-64
2023/10/15 12:38:02;;;;;;;10.77;3.45;;;;;;;;;;4973006;28;20491;-64
2023/10/15 12:40:32;;;;;;;24.35;12.90;;;;;;;;;;4973589;28;20114;-64
2023/10/15 12:43:08;;;;;;;9.30;3.17;;;;;;;;;;4973329;28;20018;-64
2023/10/15 12:45:34;;;;;;;7.60;1.55;;;;;;;;;;4973790;28;20058;-64
2023/10/15 12:48:00;;;;;;;14.75;6.53;;;;;;;;;;4972680;28;20034;-63
2023/10/15 12:50:25;;;;;;;5.65;1.58;;;;;;;;;;4971819;28;20027;-62
2023/10/15 12:52:52;;;;;;;12.63;4.45;;;;;;;;;;4971943;28;20082;-61
2023/10/15 12:55:21;;;;;;;5.88;1.63;;;;;;;;;;4971771;28;20029;-61
2023/10/15 12:57:47;;;;;;;11.20;2.53;;;;;;;;;;4972692;28;20106;-62
2023/10/15 13:00:19;;;;;;;5.85;2.17;;;;;;;;;;4973159;28;20114;-66
2023/10/15 13:02:49;;;;;;;11.13;1.33;;;;;;;;;;4973400;28;20030;-70
2023/10/15 13:05:14;;;;;;;9.55;1.45;;;;;;;;;;4973323;28;20105;-65
2023/10/15 13:07:40;;;;;;;4.38;1.33;;;;;;;;;;4973495;28;20119;-64
2023/10/15 13:10:09;;;;;;;9.30;1.73;;;;;;;;;;4973374;28;20046;-64
2023/10/15 13:12:37;;;;;;;5.70;2.03;;;;;;;;;;4973065;28;20481;-65
2023/10/15 13:15:03;;;;;;;6.05;1.83;;;;;;;;;;4972677;28;20436;-77
2023/10/15 13:17:29;;;;;;;7.60;1.70;;;;;;;;;;4973085;28;20105;-72
2023/10/15 13:19:54;;;;;;;5.95;1.40;;;;;;;;;;4973166;28;20130;-69
2023/10/15 13:22:23;;;;;;;4.93;1.73;;;;;;;;;;4971910;28;20059;-68
2023/10/15 13:24:48;;;;;;;10.27;2.75;;;;;;;;;;4975557;28;20033;-64
2023/10/15 13:27:14;;;;;;;8.20;1.85;;;;;;;;;;4976508;28;20018;-65
2023/10/15 13:29:39;;;;;;;8.63;1.67;;;;;;;;;;4976619;28;20030;-73
2023/10/15 13:32:11;;;;;;;5.75;0.70;;;;;;;;;;4977366;28;20050;-63
2023/10/15 13:34:37;;;;;;;4.50;1.30;;;;;;;;;;4976251;28;20039;-69
2023/10/15 13:37:03;;;;;;;5.63;1.17;;;;;;;;;;4978221;28;20111;-67
2023/10/15 13:39:29;;;;;;;5.75;1.33;;;;;;;;;;4977388;28;20117;-66
2023/10/15 13:41:55;;;;;;;6.47;1.33;;;;;;;;;;4976252;28;20061;-62
2023/10/15 13:44:21;;;;;;;7.57;1.30;;;;;;;;;;4976817;28;20054;-70
2023/10/15 13:46:47;;;;;;;8.02;1.30;;;;;;;;;;4977101;28;20409;-68
2023/10/15 13:49:12;;;;;;;7.00;1.58;;;;;;;;;;4975753;28;20049;-71
2023/10/15 13:51:39;;;;;;;10.07;2.15;;;;;;;;;;4975826;28;20476;-63
2023/10/15 13:54:04;;;;;;;5.53;1.42;;;;;;;;;;4975567;28;20027;-69
2023/10/15 13:56:30;;;;;;;3.53;1.10;;;;;;;;;;4975929;28;20689;-68
2023/10/15 13:58:55;;;;;;;4.75;1.08;;;;;;;;;;4975637;28;20030;-62
2023/10/15 14:01:21;;;;;;;5.30;1.20;;;;;;;;;;4976374;28;20027;-79
2023/10/15 14:03:47;;;;;;;7.50;1.15;;;;;;;;;;4978045;28;20117;-77
2023/10/15 14:06:13;;;;;;;5.53;2.47;;;;;;;;;;4976054;28;20027;-68
2023/10/15 14:08:39;;;;;;;7.35;1.50;;;;;;;;;;4973815;28;20045;-66
2023/10/15 14:11:04;;;;;;;8.25;1.92;;;;;;;;;;4975708;28;20362;-66
2023/10/15 14:13:30;;;;;;;9.75;2.10;;;;;;;;;;4974367;28;20023;-68
2023/10/15 14:16:01;;;;;;;4.68;1.60;;;;;;;;;;4975640;28;20543;-68
2023/10/15 14:18:28;;;;;;;6.05;1.42;;;;;;;;;;4975358;28;20035;-67
2023/10/15 14:20:53;;;;;;;9.25;2.35;;;;;;;;;;4975462;28;20031;-66
2023/10/15 14:23:20;;;;;;;10.15;2.15;;;;;;;;;;4975069;28;20073;-65
2023/10/15 14:25:47;;;;;;;4.63;1.80;;;;;;;;;;4975448;28;20026;-63
2023/10/15 14:28:13;;;;;;;5.38;1.65;;;;;;;;;;4975186;28;20031;-68
2023/10/15 14:30:38;;;;;;;4.75;1.67;;;;;;;;;;4975472;28;20022;-70
2023/10/15 14:33:04;;;;;;;33.05;10.35;;;;;;;;;;4974967;28;20038;-72
2023/10/15 14:35:29;;;;;;;47.10;18.70;;;;;;;;;;4975135;28;20033;-72
2023/10/15 14:37:55;;;;;;;16.15;6.43;;;;;;;;;;4976288;28;20035;-65
2023/10/15 14:40:21;;;;;;;9.07;2.17;;;;;;;;;;4975144;28;20030;-65
2023/10/15 14:42:46;;;;;;;9.90;2.58;;;;;;;;;;4975053;28;20122;-65
2023/10/15 14:45:12;;;;;;;19.15;5.75;;;;;;;;;;4975678;28;20118;-85
2023/10/15 14:47:38;;;;;;;8.77;2.55;;;;;;;;;;4975684;28;20027;-72
2023/10/15 14:50:04;;;;;;;54.17;32.90;;;;;;;;;;4974771;28;20518;-76
2023/10/15 14:52:30;;;;;;;8.52;2.10;;;;;;;;;;4975190;28;20050;-67
2023/10/15 14:54:55;;;;;;;7.32;1.98;;;;;;;;;;4975059;28;20419;-78
2023/10/15 14:57:21;;;;;;;5.65;1.50;;;;;;;;;;4974548;28;20387;-80
2023/10/15 14:59:46;;;;;;;14.98;5.82;;;;;;;;;;4975384;28;20034;-81
2023/10/15 15:02:14;;;;;;;8.68;2.72;;;;;;;;;;4975248;28;20082;-79
2023/10/15 15:04:40;;;;;;;36.30;17.35;;;;;;;;;;4974271;28;20111;-76
2023/10/15 15:07:06;;;;;;;7.53;2.67;;;;;;;;;;4974777;28;20110;-68
2023/10/15 15:09:32;;;;;;;127.07;51.25;;;;;;;;;;4975337;28;20026;-78
2023/10/15 15:11:57;;;;;;;22.90;7.57;;;;;;;;;;4974478;28;20041;-78